Time;durP1;ratioP1;P1;durP2;ratioP2;P2;SDS_P1;SDS_P2;PMS_P1;PMS_P2;Temp;Humidity;BMP_temperature;BMP_pressure;BME280_temperature;BME280_humidity;BME280_pressure;Samples;Min_cycle;Max_cycle;Signal;HPM_P1;HPM_P2
2022/05/10 00:01:33;;;;;;;;;28.75;26.00;;;;;22.33;34.95;101567.25;5000398;28;46114;-46
2022/05/10 00:04:00;;;;;;;;;29.00;26.75;;;;;22.29;35.46;101565.66;5000317;28;45320;-49
2022/05/10 00:06:29;;;;;;;;;26.50;23.25;;;;;22.23;35.13;101566.84;5000520;28;45516;-47
2022/05/10 00:08:55;;;;;;;;;23.75;23.00;;;;;22.19;35.50;101559.91;5001358;28;45260;-46
2022/05/10 00:11:21;;;;;;;;;31.00;25.50;;;;;22.19;35.68;101560.78;5010474;28;45377;-50
2022/05/10 00:13:47;;;;;;;;;26.00;24.25;;;;;22.15;35.24;101564.56;4999943;28;45310;-50
2022/05/10 00:16:15;;;;;;;;;27.00;25.75;;;;;22.11;35.43;101552.25;4998888;28;45432;-50
2022/05/10 00:18:41;;;;;;;;;25.75;23.25;;;;;22.10;35.51;101563.03;4999922;28;45429;-47
2022/05/10 00:21:09;;;;;;;;;29.75;26.25;;;;;22.06;35.68;101549.81;5000049;28;45283;-47
2022/05/10 00:23:34;;;;;;;;;24.00;23.75;;;;;22.04;35.40;101551.69;5000035;28;45252;-45
2022/05/10 00:26:00;;;;;;;;;26.25;25.50;;;;;22.01;35.77;101562.56;5000088;28;45236;-47
2022/05/10 00:28:25;;;;;;;;;25.25;24.00;;;;;21.98;36.03;101560.03;4999732;28;45362;-50
2022/05/10 00:30:50;;;;;;;;;30.25;26.25;;;;;21.96;35.70;101553.03;4999926;28;45472;-48
2022/05/10 00:33:20;;;;;;;;;23.25;21.25;;;;;21.92;35.53;101553.19;4998474;28;45378;-49
2022/05/10 00:35:45;;;;;;;;;29.00;26.00;;;;;21.89;35.71;101556.00;5000121;28;45382;-45
2022/05/10 00:38:11;;;;;;;;;27.25;25.50;;;;;21.86;35.99;101550.81;4999729;28;45231;-46
2022/05/10 00:40:37;;;;;;;;;27.25;24.25;;;;;21.83;36.29;101545.59;4999724;28;46233;-48
2022/05/10 00:43:20;;;;;;;;;31.75;30.25;;;;;21.79;36.32;101546.69;4999644;28;45258;-51
2022/05/10 00:45:56;;;;;;;;;30.25;27.75;;;;;21.67;35.80;101537.47;5003147;28;45285;-49
2022/05/10 00:48:41;;;;;;;;;30.25;28.00;;;;;21.68;36.07;101541.84;5003470;28;45227;-47
2022/05/10 00:51:27;;;;;;;;;29.50;27.75;;;;;21.67;36.63;101540.16;4985622;28;46646;-47
2022/05/10 00:54:02;;;;;;;;;29.50;27.25;;;;;21.65;36.11;101547.38;5003096;28;45305;-47
2022/05/10 00:56:38;;;;;;;;;25.25;25.25;;;;;21.63;36.44;101545.72;5003427;28;45370;-49
2022/05/10 00:59:18;;;;;;;;;27.25;25.00;;;;;21.61;36.39;101534.22;5002771;28;45600;-51
2022/05/10 01:01:50;;;;;;;;;24.50;23.25;;;;;21.58;36.20;101530.75;5003051;28;45576;-47
2022/05/10 01:04:35;;;;;;;;;25.75;23.25;;;;;21.57;36.84;101529.03;5002828;28;45286;-48
2022/05/10 01:07:11;;;;;;;;;28.50;26.25;;;;;21.53;36.61;101519.34;4986201;28;45538;-50
2022/05/10 01:09:46;;;;;;;;;26.50;25.75;;;;;21.52;36.96;101523.00;5009905;28;45299;-48
2022/05/10 01:12:24;;;;;;;;;30.25;28.50;;;;;21.47;36.90;101518.78;5006096;28;45442;-50
2022/05/10 01:14:53;;;;;;;;;27.50;26.50;;;;;21.48;36.71;101521.38;4986252;28;45317;-50
2022/05/10 01:17:18;;;;;;;;;27.25;26.50;;;;;21.45;36.51;101518.03;5002767;28;45263;-50
2022/05/10 01:19:44;;;;;;;;;30.25;26.50;;;;;21.43;36.51;101510.94;5002719;28;45409;-51
2022/05/10 01:22:25;;;;;;;;;24.00;23.00;;;;;21.41;37.24;101509.28;5002527;28;45499;-51
2022/05/10 01:25:28;;;;;;;;;27.50;27.00;;;;;21.37;37.25;101513.00;5002644;28;45417;-51
2022/05/10 01:28:18;;;;;;;;;29.50;27.50;;;;;21.33;36.82;101508.75;4999414;28;45351;-51
2022/05/10 01:30:44;;;;;;;;;30.50;30.25;;;;;21.30;37.41;101503.56;5002832;28;45253;-50
2022/05/10 01:33:29;;;;;;;;;29.25;28.00;;;;;21.26;37.35;101501.03;5002431;28;45366;-48
2022/05/10 01:36:18;;;;;;;;;31.25;30.25;;;;;21.22;37.53;101499.44;5002925;28;45211;-52
2022/05/10 01:39:02;;;;;;;;;28.50;27.25;;;;;21.19;36.92;101502.25;5001266;28;45267;-50
2022/05/10 01:41:37;;;;;;;;;28.00;27.25;;;;;21.17;37.14;101511.28;5002475;28;45244;-50
2022/05/10 01:44:12;;;;;;;;;29.50;27.00;;;;;21.14;37.07;101506.09;5002278;28;46297;-49
2022/05/10 01:46:37;;;;;;;;;34.25;30.50;;;;;21.10;37.65;101505.38;5002717;28;45309;-51
2022/05/10 01:49:14;;;;;;;;;36.25;31.25;;;;;21.07;37.65;101505.53;5001095;28;45330;-52
2022/05/10 01:51:50;;;;;;;;;34.75;31.25;;;;;21.03;37.69;101494.09;5002356;28;45374;-49
2022/05/10 01:54:34;;;;;;;;;28.25;27.50;;;;;21.02;37.30;101500.38;5002095;28;46306;-47
2022/05/10 01:57:00;;;;;;;;;24.00;21.50;;;;;20.98;38.02;101493.47;5000759;28;45318;-47
2022/05/10 01:59:25;;;;;;;;;29.75;28.00;;;;;20.94;37.48;101495.41;5002305;28;45315;-51
2022/05/10 02:01:52;;;;;;;;;32.75;27.50;;;;;20.92;37.43;101491.91;5000958;28;45417;-48
2022/05/10 02:04:25;;;;;;;;;32.00;26.75;;;;;20.91;37.96;101492.84;5002027;28;46112;-48
2022/05/10 02:06:59;;;;;;;;;29.75;29.25;;;;;20.87;37.75;101488.59;5002331;28;45427;-50
2022/05/10 02:09:52;;;;;;;;;33.00;28.75;;;;;20.84;37.79;101486.06;5007517;28;45354;-46
2022/05/10 02:12:28;;;;;;;;;36.00;30.00;;;;;20.80;37.78;101486.28;5004556;28;45564;-46
2022/05/10 02:15:00;;;;;;;;;27.25;26.50;;;;;20.77;38.26;101481.94;5002057;28;46603;-50
2022/05/10 02:17:34;;;;;;;;;30.50;28.25;;;;;20.74;38.27;101482.94;5002083;28;45255;-51
2022/05/10 02:20:07;;;;;;;;;28.75;28.75;;;;;20.70;38.03;101475.97;5001675;28;45422;-49
2022/05/10 02:22:58;;;;;;;;;29.75;29.50;;;;;20.67;38.41;101472.59;5001847;28;45317;-48
2022/05/10 02:25:28;;;;;;;;;30.25;27.75;;;;;20.66;37.88;101478.84;5001598;28;45329;-50
2022/05/10 02:28:23;;;;;;;;;32.00;29.00;;;;;20.62;38.13;101478.13;5001741;28;45315;-48
2022/05/10 02:30:52;;;;;;;;;29.75;29.00;;;;;20.58;38.58;101474.72;4988673;28;45406;-46
2022/05/10 02:33:18;;;;;;;;;30.50;27.50;;;;;20.57;38.46;101472.13;5001398;28;45357;-46
2022/05/10 02:35:48;;;;;;;;;27.75;27.75;;;;;20.54;38.26;101474.91;4983876;28;47042;-50
2022/05/10 02:38:19;;;;;;;;;31.25;25.25;;;;;20.53;38.18;101478.53;5001664;28;45324;-47
2022/05/10 02:40:45;;;;;;;;;29.50;28.75;;;;;20.51;39.02;101477.75;5001605;28;45325;-46
2022/05/10 02:43:19;;;;;;;;;27.75;25.75;;;;;20.47;38.30;101479.66;5001433;28;45316;-49
2022/05/10 02:45:45;;;;;;;;;29.75;29.75;;;;;20.43;38.63;101473.59;5001820;28;45473;-45
2022/05/10 02:48:27;;;;;;;;;31.50;28.75;;;;;20.43;38.59;101476.25;5001328;28;45310;-47
2022/05/10 02:50:52;;;;;;;;;30.00;27.00;;;;;20.40;39.10;101473.75;5001666;28;45330;-48
2022/05/10 02:53:18;;;;;;;;;35.00;29.25;;;;;20.38;39.05;101466.75;5001432;28;45324;-49
2022/05/10 02:55:51;;;;;;;;;32.00;26.75;;;;;20.37;39.15;101465.84;5001244;28;45460;-47
2022/05/10 02:58:43;;;;;;;;;32.25;29.75;;;;;20.33;39.15;101463.41;5000901;28;45440;-49
2022/05/10 03:01:20;;;;;;;;;32.00;30.75;;;;;20.34;38.92;101463.34;4965650;28;45706;-50
2022/05/10 03:03:46;;;;;;;;;32.00;27.75;;;;;20.32;38.92;101467.88;5001311;28;45509;-50
2022/05/10 03:06:17;;;;;;;;;27.75;24.50;;;;;20.27;38.84;101457.38;5001212;28;46033;-48
2022/05/10 03:08:44;;;;;;;;;32.25;29.00;;;;;20.29;39.13;101460.84;5000465;28;45310;-48
2022/05/10 03:11:10;;;;;;;;;31.00;28.00;;;;;20.29;39.35;101452.00;4989549;28;45251;-50
2022/05/10 03:13:35;;;;;;;;;30.25;28.75;;;;;20.26;38.90;101453.00;5000604;28;45185;-47
2022/05/10 03:16:01;;;;;;;;;32.25;30.25;;;;;20.23;39.11;101446.94;5001133;28;45238;-47
2022/05/10 03:18:27;;;;;;;;;32.75;31.25;;;;;20.23;39.45;101450.44;4999369;28;45488;-50
2022/05/10 03:20:52;;;;;;;;;31.00;28.25;;;;;20.23;39.14;101446.94;5001013;28;45497;-50
2022/05/10 03:23:17;;;;;;;;;29.25;29.25;;;;;20.18;39.64;101444.44;5000880;28;45492;-48
2022/05/10 03:25:43;;;;;;;;;28.50;27.50;;;;;20.19;39.57;101445.31;4983219;28;46305;-51
2022/05/10 03:28:09;;;;;;;;;22.50;22.50;;;;;20.17;39.58;101444.53;5000496;28;45367;-50
2022/05/10 03:30:35;;;;;;;;;26.25;24.25;;;;;20.16;39.12;101440.13;5001116;28;45403;-50
2022/05/10 03:33:00;;;;;;;;;30.50;28.00;;;;;20.14;39.24;101435.72;5000622;28;45503;-52
2022/05/10 03:35:25;;;;;;;;;26.00;26.00;;;;;20.13;39.51;101441.97;5000683;28;46293;-50
2022/05/10 03:37:51;;;;;;;;;28.00;25.25;;;;;20.11;39.41;101441.19;5000707;28;45180;-51
2022/05/10 03:40:16;;;;;;;;;27.50;26.75;;;;;20.08;39.36;101435.13;5000732;28;45255;-46
2022/05/10 03:42:52;;;;;;;;;30.25;26.75;;;;;20.09;39.66;101427.03;5000419;28;45358;-47
2022/05/10 03:45:20;;;;;;;;;28.50;26.50;;;;;20.07;39.85;101433.38;5000542;28;46064;-50
2022/05/10 03:47:47;;;;;;;;;30.00;27.00;;;;;20.06;39.91;101427.19;5000241;28;45366;-50
2022/05/10 03:50:13;;;;;;;;;51.50;42.00;;;;;20.05;39.86;101433.44;5000628;28;45270;-51
2022/05/10 03:52:43;;;;;;;;;22.00;20.75;;;;;20.04;39.77;101431.72;5000420;28;45338;-50
2022/05/10 03:55:11;;;;;;;;;26.00;25.75;;;;;20.03;39.35;101426.44;5000273;28;45463;-48
2022/05/10 03:57:37;;;;;;;;;28.00;25.75;;;;;20.02;39.94;101425.56;4999981;28;45354;-50
2022/05/10 04:00:07;;;;;;;;;26.50;25.50;;;;;20.01;39.82;101422.97;5000427;28;45324;-50
2022/05/10 04:02:33;;;;;;;;;28.00;25.25;;;;;20.00;39.83;101422.13;4982700;28;45342;-46
2022/05/10 04:04:58;;;;;;;;;27.75;27.75;;;;;20.00;39.87;101426.56;5000293;28;45357;-49
2022/05/10 04:07:24;;;;;;;;;26.00;24.25;;;;;19.99;39.51;101425.72;5000193;28;45334;-48
2022/05/10 04:09:49;;;;;;;;;24.25;22.50;;;;;19.98;39.80;101418.63;5008854;28;45246;-48
2022/05/10 04:12:15;;;;;;;;;28.75;28.50;;;;;19.97;39.51;101422.22;5002786;28;45547;-46
2022/05/10 04:14:40;;;;;;;;;25.50;25.50;;;;;19.95;39.99;101424.13;4998950;28;46065;-50
2022/05/10 04:17:06;;;;;;;;;27.50;25.75;;;;;19.94;39.58;101422.38;4998797;28;45465;-50
2022/05/10 04:19:31;;;;;;;;;23.25;22.50;;;;;19.94;39.47;101427.72;4981406;28;45330;-45
2022/05/10 04:21:56;;;;;;;;;28.75;26.75;;;;;19.92;39.55;101424.22;5000153;28;45504;-50
2022/05/10 04:24:22;;;;;;;;;25.50;25.00;;;;;19.91;40.09;101422.50;4999928;28;45317;-49
2022/05/10 04:26:48;;;;;;;;;26.00;26.00;;;;;19.89;39.96;101421.72;4999604;28;45347;-46
2022/05/10 04:29:14;;;;;;;;;23.25;23.25;;;;;19.87;39.59;101424.41;5000091;28;45323;-48
2022/05/10 04:31:40;;;;;;;;;22.50;20.75;;;;;19.86;39.90;101429.81;4999690;28;45556;-48
2022/05/10 04:34:06;;;;;;;;;26.75;23.25;;;;;19.86;40.22;101432.50;4999923;28;45377;-47
2022/05/10 04:36:31;;;;;;;;;24.75;23.00;;;;;19.84;39.90;101426.38;4999780;28;45162;-50
2022/05/10 04:38:57;;;;;;;;;24.50;22.50;;;;;19.81;39.82;101428.19;5000151;28;45235;-52
2022/05/10 04:41:26;;;;;;;;;28.50;25.00;;;;;19.80;39.77;101430.94;4999901;28;45372;-50
2022/05/10 04:44:10;;;;;;;;;23.75;23.75;;;;;19.79;39.78;101434.53;4981876;28;46967;-49
2022/05/10 04:46:37;;;;;;;;;26.00;25.25;;;;;19.79;39.79;101437.19;4999719;28;45242;-48
2022/05/10 04:49:05;;;;;;;;;25.50;22.75;;;;;19.76;40.25;101423.97;4999916;28;45257;-49
2022/05/10 04:51:30;;;;;;;;;27.25;23.00;;;;;19.72;39.82;101420.59;4999727;28;45431;-48
2022/05/10 04:53:56;;;;;;;;;25.50;25.50;;;;;19.75;39.80;101424.94;4999535;28;46003;-48
2022/05/10 04:56:23;;;;;;;;;25.25;24.50;;;;;19.72;39.95;101419.72;4999617;28;45294;-51
2022/05/10 04:58:48;;;;;;;;;27.50;27.50;;;;;19.73;39.96;101429.44;4999553;28;45454;-49
2022/05/10 05:01:16;;;;;;;;;22.75;22.25;;;;;19.72;39.95;101425.03;4999775;28;45159;-50
2022/05/10 05:03:44;;;;;;;;;25.00;23.25;;;;;19.71;40.22;101425.97;4999384;28;45405;-51
2022/05/10 05:06:09;;;;;;;;;28.25;27.00;;;;;19.68;40.13;101421.63;4999374;28;45362;-50
2022/05/10 05:08:34;;;;;;;;;22.25;20.50;;;;;19.69;40.30;101428.69;4999721;28;45488;-50
2022/05/10 05:11:01;;;;;;;;;24.75;22.75;;;;;19.67;39.78;101430.56;5011311;28;45387;-46
2022/05/10 05:13:26;;;;;;;;;26.50;24.25;;;;;19.66;40.27;101426.19;4999036;28;45315;-50
2022/05/10 05:15:52;;;;;;;;;25.25;22.00;;;;;19.69;40.18;101435.84;4999398;28;45250;-47
2022/05/10 05:18:18;;;;;;;;;39.25;35.75;;;;;19.70;40.02;101432.22;4999138;28;45192;-51
2022/05/10 05:20:43;;;;;;;;;21.00;20.25;;;;;19.71;40.30;101441.97;4999469;28;45241;-47
2022/05/10 05:23:10;;;;;;;;;25.50;25.50;;;;;19.70;40.47;101438.44;4999322;28;45314;-47
2022/05/10 05:25:37;;;;;;;;;25.75;22.50;;;;;19.73;40.14;101440.09;4999199;28;45417;-48
2022/05/10 05:28:04;;;;;;;;;23.75;22.75;;;;;19.74;40.19;101441.84;4999012;28;45369;-49
2022/05/10 05:30:29;;;;;;;;;25.25;23.75;;;;;19.66;40.02;101418.19;5000099;28;45525;-49
2022/05/10 05:32:54;;;;;;;;;24.25;24.25;;;;;19.72;40.08;101425.03;5002488;28;45350;-47
2022/05/10 05:35:20;;;;;;;;;25.25;23.25;;;;;19.73;40.26;101430.28;5002561;28;45294;-48
2022/05/10 05:37:46;;;;;;;;;26.00;21.50;;;;;19.71;40.66;101439.28;5002617;28;45315;-49
2022/05/10 05:40:13;;;;;;;;;21.75;19.50;;;;;19.70;40.33;101445.56;5002585;28;45504;-51
2022/05/10 05:42:40;;;;;;;;;19.25;18.50;;;;;19.69;40.17;101449.19;5002247;28;46964;-49
2022/05/10 05:45:08;;;;;;;;;24.25;24.25;;;;;19.64;40.17;101430.69;5002457;28;45422;-51
2022/05/10 05:47:33;;;;;;;;;25.25;23.75;;;;;19.65;40.64;101446.63;5002371;28;45328;-47
2022/05/10 05:49:59;;;;;;;;;22.00;22.00;;;;;19.64;40.40;101449.34;5002218;28;45345;-49
2022/05/10 05:52:25;;;;;;;;;20.00;19.25;;;;;19.61;40.15;101441.50;5001966;28;46276;-50
2022/05/10 05:54:52;;;;;;;;;22.50;20.00;;;;;19.60;40.52;101447.75;5002191;28;45399;-47
2022/05/10 05:57:18;;;;;;;;;25.25;23.25;;;;;19.63;40.44;101452.94;5002066;28;45258;-48
2022/05/10 05:59:43;;;;;;;;;23.00;20.75;;;;;19.61;40.88;101453.00;4984489;28;45480;-49
2022/05/10 06:02:15;;;;;;;;;23.00;21.00;;;;;19.60;40.62;101439.75;5002089;28;46295;-50
2022/05/10 06:04:40;;;;;;;;;24.00;20.50;;;;;19.63;40.87;101445.84;4999770;28;45303;-49
2022/05/10 06:07:06;;;;;;;;;23.00;22.50;;;;;19.64;40.29;101447.53;5003145;28;45401;-47
2022/05/10 06:09:31;;;;;;;;;23.00;22.00;;;;;19.64;40.74;101438.69;5019762;28;45152;-49
2022/05/10 06:11:57;;;;;;;;;24.00;23.00;;;;;19.68;40.74;101447.44;5007114;28;45437;-51
2022/05/10 06:14:22;;;;;;;;;26.00;24.75;;;;;19.69;40.48;101457.19;5009314;28;45226;-51
2022/05/10 06:16:47;;;;;;;;;27.00;25.50;;;;;19.70;40.66;101454.44;5021740;28;45872;-51
2022/05/10 06:19:14;;;;;;;;;36.25;32.25;;;;;19.70;40.22;101446.44;5020165;28;45416;-49
2022/05/10 06:21:41;;;;;;;;;33.25;29.00;;;;;19.75;40.75;101443.59;5018993;28;45273;-51
2022/05/10 06:24:07;;;;;;;;;28.75;24.25;;;;;19.73;40.71;101440.97;5021333;28;45440;-45
2022/05/10 06:26:32;;;;;;;;;29.75;25.75;;;;;19.77;40.63;101442.59;5021188;28;45392;-51
2022/05/10 06:28:57;;;;;;;;;28.00;26.25;;;;;19.79;40.94;101442.53;5019815;28;45329;-51
2022/05/10 06:31:23;;;;;;;;;30.25;25.75;;;;;19.80;41.12;101442.44;5021189;28;45309;-50
2022/05/10 06:33:48;;;;;;;;;26.00;25.25;;;;;19.84;40.88;101437.03;5021499;28;45394;-51
2022/05/10 06:36:13;;;;;;;;;30.75;25.00;;;;;19.88;40.83;101449.31;5021447;28;45975;-52
2022/05/10 06:38:40;;;;;;;;;21.50;20.00;;;;;19.88;40.92;101444.81;5018608;28;45304;-52
2022/05/10 06:41:06;;;;;;;;;21.75;18.00;;;;;19.94;41.00;101441.03;5013041;28;46389;-48
2022/05/10 06:43:35;;;;;;;;;20.50;20.50;;;;;19.96;41.01;101440.03;5020483;28;45447;-52
2022/05/10 06:46:13;;;;;;;;;33.50;27.50;;;;;20.00;40.60;101440.78;5021115;28;45450;-50
2022/05/10 06:48:39;;;;;;;;;22.75;20.75;;;;;20.02;40.90;101436.22;5020986;28;45290;-50
2022/05/10 06:51:06;;;;;;;;;26.00;20.00;;;;;20.04;40.82;101434.38;4996702;28;47168;-50
2022/05/10 06:53:32;;;;;;;;;24.50;22.75;;;;;20.10;41.15;101438.56;5001173;28;45171;-48
2022/05/10 06:55:58;;;;;;;;;23.50;23.00;;;;;20.14;40.60;101435.72;4999945;28;45326;-49
2022/05/10 06:58:23;;;;;;;;;22.50;21.00;;;;;20.18;40.88;101430.25;5001078;28;45251;-46
2022/05/10 07:00:49;;;;;;;;;27.25;26.00;;;;;20.24;40.44;101428.19;5001149;28;45236;-46
2022/05/10 07:03:16;;;;;;;;;21.50;20.00;;;;;20.28;40.79;101434.25;5001160;28;45332;-47
2022/05/10 07:05:43;;;;;;;;;24.75;23.50;;;;;20.32;40.62;101433.16;5001204;28;45350;-50
2022/05/10 07:08:09;;;;;;;;;27.75;25.50;;;;;20.36;41.06;101431.22;5001201;28;45267;-46
2022/05/10 07:10:35;;;;;;;;;22.50;22.00;;;;;20.36;40.75;101424.09;5012770;28;46067;-49
2022/05/10 07:13:00;;;;;;;;;27.00;25.75;;;;;20.43;40.69;101432.69;5000962;28;45422;-51
2022/05/10 07:15:26;;;;;;;;;23.00;23.00;;;;;20.47;40.50;101426.28;4999796;28;45241;-45
2022/05/10 07:17:52;;;;;;;;;22.25;19.75;;;;;20.50;40.51;101427.94;5000902;28;45335;-50
2022/05/10 07:20:19;;;;;;;;;21.75;21.00;;;;;20.57;40.67;101424.06;5000735;28;46188;-44
2022/05/10 07:22:45;;;;;;;;;21.50;20.00;;;;;20.62;41.11;101428.25;5000842;28;45270;-46
2022/05/10 07:25:13;;;;;;;;;28.50;25.00;;;;;20.67;40.60;101419.19;5000850;28;45387;-47
2022/05/10 07:27:39;;;;;;;;;25.00;23.00;;;;;20.74;41.32;101418.84;4983089;28;45377;-45
2022/05/10 07:30:05;;;;;;;;;24.00;22.75;;;;;20.80;40.88;101419.50;5000433;28;45502;-51
2022/05/10 07:32:30;;;;;;;;;24.50;23.00;;;;;20.84;41.06;101424.66;5000518;28;45278;-50
2022/05/10 07:34:55;;;;;;;;;25.25;20.00;;;;;20.89;40.90;101424.41;5000778;28;45440;-50
2022/05/10 07:37:21;;;;;;;;;20.25;19.50;;;;;20.92;40.54;101414.44;5000821;28;45473;-49
2022/05/10 07:39:46;;;;;;;;;21.75;19.00;;;;;21.02;40.64;101427.34;5000193;28;45336;-48
2022/05/10 07:42:11;;;;;;;;;23.50;21.75;;;;;20.98;40.47;101415.09;5000463;28;45286;-48
2022/05/10 07:44:37;;;;;;;;;18.75;17.75;;;;;21.09;40.78;101423.47;5000654;28;45605;-47
2022/05/10 07:47:03;;;;;;;;;37.00;32.75;;;;;21.15;40.83;101427.66;5000631;28;45263;-50
2022/05/10 07:49:28;;;;;;;;;35.00;32.25;;;;;21.21;41.00;101430.03;5000447;28;46155;-46
2022/05/10 07:51:54;;;;;;;;;23.75;23.50;;;;;21.24;40.53;101419.19;5000515;28;45306;-48
2022/05/10 07:54:19;;;;;;;;;19.75;18.00;;;;;21.26;40.44;101409.31;4982524;28;45866;-51
2022/05/10 07:56:45;;;;;;;;;22.75;19.25;;;;;21.33;40.75;101421.41;4999028;28;45490;-50
2022/05/10 07:59:10;;;;;;;;;20.00;19.75;;;;;21.38;40.39;101408.72;5000213;28;45723;-47
2022/05/10 08:01:36;;;;;;;;;21.75;20.50;;;;;21.43;40.24;101420.03;5000360;28;45247;-48
2022/05/10 08:04:03;;;;;;;;;21.00;20.75;;;;;21.46;40.76;101411.00;5000289;28;45346;-49
2022/05/10 08:06:28;;;;;;;;;20.00;18.00;;;;;21.51;40.14;101414.31;5000313;28;45343;-51
2022/05/10 08:08:54;;;;;;;;;23.25;21.25;;;;;21.56;40.47;101416.81;5001121;28;46286;-48
2022/05/10 08:11:20;;;;;;;;;19.50;17.75;;;;;21.61;40.01;101412.09;5010751;28;45330;-50
2022/05/10 08:13:45;;;;;;;;;18.00;16.50;;;;;21.67;40.32;101410.91;4999909;28;45402;-50
2022/05/10 08:16:11;;;;;;;;;19.50;18.25;;;;;21.71;40.44;101413.34;5000413;28;45263;-49
2022/05/10 08:18:40;;;;;;;;;19.00;18.75;;;;;21.75;40.58;101419.41;4999795;28;45910;-51
2022/05/10 08:21:06;;;;;;;;;25.00;22.00;;;;;21.78;40.57;101413.03;5000140;28;45199;-51
2022/05/10 08:23:35;;;;;;;;;20.25;19.00;;;;;21.85;40.41;101417.13;4982472;28;45299;-51
2022/05/10 08:26:02;;;;;;;;;19.25;18.25;;;;;21.89;40.33;101422.22;4982656;28;45453;-48
2022/05/10 08:28:29;;;;;;;;;19.25;17.50;;;;;21.92;40.27;101416.75;4999472;28;46174;-48
2022/05/10 08:30:56;;;;;;;;;20.50;20.00;;;;;21.98;40.36;101414.69;4999900;28;45465;-48
2022/05/10 08:33:34;;;;;;;;;21.75;19.25;;;;;22.03;40.38;101421.50;4999922;28;45355;-47
2022/05/10 08:36:00;;;;;;;;;18.75;18.50;;;;;22.08;40.19;101421.28;4999854;28;45395;-50
2022/05/10 08:38:27;;;;;;;;;21.50;18.75;;;;;22.13;40.04;101426.41;4999546;28;46117;-46
2022/05/10 08:41:02;;;;;;;;;24.50;21.25;;;;;22.17;40.18;101414.59;4999680;28;45291;-48
2022/05/10 08:43:32;;;;;;;;;20.50;19.25;;;;;22.11;39.98;101396.19;4999479;28;45241;-46
2022/05/10 08:45:58;;;;;;;;;18.00;18.00;;;;;22.31;39.97;101414.72;4999575;28;45790;-51
2022/05/10 08:48:28;;;;;;;;;21.75;20.00;;;;;22.38;39.89;101426.88;4981749;28;46946;-47
2022/05/10 08:50:54;;;;;;;;;19.00;17.25;;;;;22.44;39.76;101416.78;4999692;28;45381;-48
2022/05/10 08:53:20;;;;;;;;;20.50;18.75;;;;;22.50;39.92;101416.44;4999712;28;45223;-50
2022/05/10 08:55:56;;;;;;;;;19.25;18.25;;;;;22.57;39.95;101423.22;4999588;28;45186;-50
2022/05/10 08:58:43;;;;;;;;;19.75;18.50;;;;;22.62;39.75;101406.91;4999243;28;46209;-48
2022/05/10 09:01:14;;;;;;;;;20.25;18.50;;;;;22.70;39.64;101410.88;4999222;28;45282;-50
2022/05/10 09:03:55;;;;;;;;;20.25;18.75;;;;;22.79;39.70;101414.00;4999727;28;45243;-47
2022/05/10 09:06:45;;;;;;;;;19.00;18.25;;;;;22.85;39.71;101409.16;5002001;28;45424;-49
2022/05/10 09:09:29;;;;;;;;;16.75;16.75;;;;;22.93;39.52;101406.06;5006042;28;45600;-51
2022/05/10 09:12:03;;;;;;;;;17.50;16.00;;;;;23.01;39.39;101411.84;5008436;28;45282;-47
2022/05/10 09:15:09;;;;;;;;;15.00;15.00;;;;;23.05;39.10;101405.34;5002962;28;45261;-47
2022/05/10 09:17:39;;;;;;;;;19.75;19.00;;;;;23.15;39.40;101404.84;4982082;28;45606;-47
2022/05/10 09:20:06;;;;;;;;;15.75;15.75;;;;;23.24;39.09;101406.19;5002257;28;46230;-51
2022/05/10 09:22:42;;;;;;;;;12.50;12.00;;;;;23.32;39.04;101411.94;5001489;28;46424;-49
2022/05/10 09:25:31;;;;;;;;;14.50;14.50;;;;;23.38;39.13;101398.19;5002543;28;45452;-49
2022/05/10 09:27:59;;;;;;;;;19.00;15.75;;;;;23.46;38.86;101400.41;4987615;28;45510;-50
2022/05/10 09:30:34;;;;;;;;;16.50;16.00;;;;;23.55;38.89;101389.19;5002393;28;46093;-52
2022/05/10 09:36:30;;;;;;;;;17.00;16.00;;;;;23.79;38.66;101389.53;4960939;28;45440;-53
2022/05/10 09:39:01;;;;;;;;;15.25;15.25;;;;;23.85;38.32;101386.47;5002426;28;45525;-52
2022/05/10 09:41:51;;;;;;;;;18.00;15.25;;;;;23.99;38.35;101390.19;4984535;28;47254;-53
2022/05/10 09:44:22;;;;;;;;;12.00;12.00;;;;;24.10;38.35;101393.09;5002403;28;45417;-51
2022/05/10 09:46:48;;;;;;;;;16.50;15.50;;;;;24.18;38.02;101389.94;5002463;28;45306;-52
2022/05/10 09:49:31;;;;;;;;;16.00;14.75;;;;;24.32;38.16;101389.06;5002230;28;45303;-51
2022/05/10 09:51:58;;;;;;;;;15.00;14.00;;;;;24.42;37.97;101386.69;4984828;28;46235;-50
2022/05/10 09:54:36;;;;;;;;;12.25;12.25;;;;;24.50;37.55;101381.66;5002012;28;45259;-51
2022/05/10 09:57:02;;;;;;;;;14.50;13.25;;;;;24.62;37.79;101385.41;5000835;28;45374;-50
2022/05/10 09:59:47;;;;;;;;;13.75;12.25;;;;;24.74;37.35;101387.38;5002248;28;45475;-51
2022/05/10 10:02:33;;;;;;;;;14.25;13.25;;;;;24.86;37.61;101388.38;5002224;28;47124;-51
2022/05/10 10:05:00;;;;;;;;;12.50;12.50;;;;;24.95;37.57;101377.03;5000806;28;46402;-51
2022/05/10 10:07:28;;;;;;;;;13.25;12.75;;;;;25.06;37.66;101365.59;4984393;28;45296;-47
2022/05/10 10:10:20;;;;;;;;;11.25;11.25;;;;;25.21;36.72;101366.41;5011166;28;45463;-50
2022/05/10 10:12:46;;;;;;;;;13.75;13.75;;;;;25.37;37.21;101368.97;4989610;28;45456;-51
2022/05/10 10:15:37;;;;;;;;;10.75;10.75;;;;;25.52;36.54;101361.69;5001718;28;45318;-53
2022/05/10 10:18:09;;;;;;;;;13.25;12.25;;;;;25.67;36.41;101364.28;4982770;28;45350;-50
2022/05/10 10:20:47;;;;;;;;;16.00;12.25;;;;;25.80;36.70;101355.28;4984170;28;45670;-49
2022/05/10 10:23:24;;;;;;;;;15.50;14.00;;;;;25.96;36.70;101348.81;5001767;28;45439;-50
2022/05/10 10:25:55;;;;;;;;;13.25;12.75;;;;;26.13;36.08;101349.53;5001642;28;45469;-49
2022/05/10 10:28:27;;;;;;;;;12.50;12.50;;;;;26.32;36.43;101354.44;5000128;28;45301;-49
2022/05/10 10:30:55;;;;;;;;;11.25;11.25;;;;;26.52;36.40;101361.94;5001774;28;45219;-51
2022/05/10 10:33:29;;;;;;;;;11.25;10.50;;;;;26.67;36.22;101376.16;5001241;28;45366;-51
2022/05/10 10:36:14;;;;;;;;;14.00;14.00;;;;;26.89;35.87;101359.31;5001730;28;45239;-52
2022/05/10 10:38:55;;;;;;;;;14.00;13.00;;;;;27.08;35.41;101374.09;5001583;28;45385;-51
2022/05/10 10:41:35;;;;;;;;;7.75;7.75;;;;;27.24;34.91;101361.22;5001263;28;45273;-51
2022/05/10 10:44:14;;;;;;;;;11.25;11.00;;;;;27.43;35.27;101362.53;5001565;28;46400;-49
2022/05/10 10:47:04;;;;;;;;;11.25;10.75;;;;;27.62;35.13;101364.69;5001350;28;45559;-48
2022/05/10 10:49:55;;;;;;;;;12.00;11.00;;;;;27.81;35.29;101356.03;5001581;28;45294;-51
2022/05/10 10:52:22;;;;;;;;;13.75;13.50;;;;;27.99;34.88;101364.53;4987355;28;45471;-51
2022/05/10 10:54:47;;;;;;;;;12.25;11.50;;;;;28.15;34.47;101368.75;5001048;28;46940;-52
2022/05/10 10:57:50;;;;;;;;;13.75;10.75;;;;;28.32;34.53;101351.22;5001039;28;45595;-49
2022/05/10 11:00:18;;;;;;;;;12.00;12.00;;;;;28.53;34.22;101354.88;5000086;28;45363;-51
2022/05/10 11:02:55;;;;;;;;;14.00;12.75;;;;;28.79;33.98;101353.75;5001053;28;45464;-52
2022/05/10 11:05:31;;;;;;;;;13.00;12.25;;;;;29.03;33.93;101365.25;5001044;28;46191;-50
2022/05/10 11:08:27;;;;;;;;;15.00;11.00;;;;;29.30;34.00;101360.41;5000968;28;45433;-51
2022/05/10 11:11:31;;;;;;;;;9.00;8.25;;;;;29.57;33.48;101350.91;5012817;28;45263;-50
2022/05/10 11:14:05;;;;;;;;;10.00;10.00;;;;;29.81;33.73;101358.78;5001099;28;45369;-49
2022/05/10 11:16:36;;;;;;;;;9.00;9.00;;;;;30.02;33.08;101347.94;5000928;28;45430;-50
2022/05/10 11:19:28;;;;;;;;;12.00;11.00;;;;;30.20;32.70;101339.19;5000467;28;45239;-45
2022/05/10 11:22:00;;;;;;;;;11.50;11.50;;;;;30.42;32.40;101339.00;5000897;28;45449;-46
2022/05/10 11:24:34;;;;;;;;;15.00;13.00;;;;;30.56;32.58;101343.22;4999485;28;45540;-48
2022/05/10 11:27:21;;;;;;;;;9.25;9.25;;;;;30.82;32.46;101344.56;5000316;28;45323;-50
2022/05/10 11:30:04;;;;;;;;;11.50;11.50;;;;;30.91;32.02;101330.16;5000163;28;45414;-48